• Join FlightAware (Why Join?)
  • Login
  • US Flag 
12:35PM EDT


 

Airport Tracker/Info


-or-


 

Live Flight TrackerFlight Track Log ✈ EJA122 ✈ 07-Jun-2013 ✈ KMRY - KTUS

Flight Track Log - Related Links

Times and Time Zones

All times are in EDT time to prevent confusion due to time zone crossing. See the EJA122 flight status page for this flight to view local times or setup timezone preferences in your user account.

Time Position Orientation Groundspeed Altitude Reporting Facility
EDT Latitude Longitude Course Direction KTS MPH feet Rate Location/Type
12:35PM 36.5833 -121.7833 112° Southeast 198 228 2,900  Level Northern Cal TRACON
12:36PM 36.6000 -121.7167 73° East 252 290 5,400 2,640 Climbing Northern Cal TRACON
12:37PM 36.5667 -121.6333 116° Southeast 294 338 8,000 2,280 Climbing Northern Cal TRACON
12:38PM 36.5533 -121.6067 122° Southeast 294 338 8,600 1,800 Climbing Oakland Center
12:39PM 36.5047 -121.5219 126° Southeast 301 346 10,600 1,680 Climbing Oakland Center
12:40PM 36.4558 -121.4317 124° Southeast 314 361 12,100 1,440 Climbing Oakland Center
12:41PM 36.3860 -121.1414 112° Southeast  Level FlightAware Approximate
12:41PM 36.4047 -121.3417 125° Southeast 320 368 13,600  Level Oakland Center
12:42PM 36.3539 -121.2528 125° Southeast 318 366 15,100 1,740 Climbing Oakland Center
12:43PM 36.2906 -121.1425 125° Southeast 328 377 17,200 1,800 Climbing Oakland Center
12:44PM 36.2378 -121.0489 125° Southeast 332 382 18,900 1,500 Climbing Oakland Center
12:45PM 36.1817 -120.9544 126° Southeast 340 391 20,300 1,320 Climbing Oakland Center
12:46PM 36.1278 -120.8581 125° Southeast 342 394 21,700 1,380 Climbing Oakland Center
12:47PM 36.0733 -120.7628 125° Southeast 341 392 23,200 1,380 Climbing Oakland Center
12:48PM 36.0186 -120.6681 126° Southeast 338 389 24,600 1,380 Climbing Oakland Center
12:49PM 35.9622 -120.5731 126° Southeast 342 394 26,100 1,320 Climbing Oakland Center
12:50PM 35.9036 -120.4744 126° Southeast 355 409 27,400 1,320 Climbing Oakland Center
12:51PM 35.8342 -120.3525 125° Southeast 363 418 28,900 1,260 Climbing Oakland Center
12:52PM 35.7736 -120.2503 126° Southeast 367 422 30,100 960 Climbing Oakland Center
12:53PM 35.7128 -120.1458 126° Southeast 371 427 31,000 420 Climbing Oakland Center
12:54PM 35.6472 -120.0347 126° Southeast 397 457 31,000  Level Oakland Center
12:55PM 35.6214 -119.9886 125° Southeast 402 463 31,000  Level Los Angeles Center
12:56PM 35.5356 -119.8447 126° Southeast 427 491 31,000  Level Los Angeles Center
12:56PM 35.5053 -119.7947 127° Southeast 435 501 31,000 360 Level Oakland Center
12:57PM 35.4311 -119.6742 127° Southeast 441 507 31,500 660 Climbing Oakland Center
12:58PM 35.3772 -119.5794 125° Southeast 434 499 32,200 900 Climbing Los Angeles Center
12:59PM 35.3097 -119.4667 126° Southeast 419 482 33,100 900 Climbing Los Angeles Center
01:00PM 35.2528 -119.3486 121° Southeast 408 470 34,100 960 Climbing Los Angeles Center
01:01PM 35.1969 -119.2300 120° Southeast 405 466 35,100 960 Climbing Los Angeles Center
01:02PM 35.1422 -119.1153 120° Southeast 395 455 36,100 900 Climbing Los Angeles Center
01:03PM 35.0897 -119.0014 119° Southeast 388 447 37,000 780 Climbing Los Angeles Center
01:04PM 35.0247 -118.8692 121° Southeast 381 438 37,800 540 Climbing Los Angeles Center
01:05PM 34.9711 -118.7564 120° Southeast 383 441 38,200 360 Climbing Los Angeles Center
01:06PM 34.9153 -118.6442 121° Southeast 386 444 38,600 300 Climbing Los Angeles Center
01:07PM 34.8558 -118.5217 121° Southeast 391 450 38,900 180 Climbing Los Angeles Center
01:08PM 34.8022 -118.4144 121° Southeast 398 458 39,000  Climbing Los Angeles Center
01:09PM 34.7447 -118.2967 121° Southeast 404 465 39,000  Level Los Angeles Center
01:10PM 34.6711 -118.1469 121° Southeast 421 484 39,000  Level Los Angeles Center
01:11PM 34.6175 -118.0192 117° Southeast 440 506 39,000  Level Los Angeles Center
01:12PM 34.5764 -117.8825 110° East 438 504 39,000  Level Los Angeles Center
01:14PM 34.5344 -117.7422 110° East 445 512 39,000  Level Los Angeles Center
01:15PM 34.4750 -117.5444 110° East 449 517 39,000  Level Los Angeles Center
01:16PM 34.4308 -117.4003 110° East 458 527 39,000  Level Los Angeles Center
01:17PM 34.3881 -117.2564 110° East 459 528 39,000  Level Los Angeles Center
01:18PM 34.3442 -117.1144 110° East 455 524 39,000  Level Los Angeles Center
01:19PM 34.3011 -116.9719 110° East 455 524 39,000  Level Los Angeles Center
01:20PM 34.2486 -116.8031 111° Southeast 451 519 39,000  Level Los Angeles Center
01:21PM 34.2058 -116.6633 110° East 446 513 39,000  Level Los Angeles Center
01:22PM 34.1606 -116.5206 111° Southeast 456 525 39,000 -120 Level Los Angeles Center
01:23PM 34.1236 -116.3936 109° East 464 534 38,800 -1,260 Descending Los Angeles Center
01:24PM 34.0697 -116.2306 112° Southeast 441 507 36,400 -1,860 Descending Los Angeles Center
01:25PM 34.0283 -116.0936 110° East 436 502 35,000 -720 Descending Los Angeles Center
01:26PM 33.9825 -115.9489 111° Southeast 451 519 35,000  Level Los Angeles Center
01:27PM 33.9328 -115.7961 111° Southeast 483 556 35,000  Level Los Angeles Center
01:28PM 33.8761 -115.6147 111° Southeast 483 556 35,000  Level Los Angeles Center
01:29PM 33.8303 -115.4603 110° East 488 562 35,000  Level Los Angeles Center
01:30PM 33.7831 -115.3044 110° East 495 570 35,000  Level Los Angeles Center
01:31PM 33.7361 -115.1486 110° East 495 570 35,000  Level Los Angeles Center
01:32PM 33.6892 -114.9919 110° East 498 573 35,000  Level Los Angeles Center
01:33PM 33.6406 -114.8358 110° East 498 573 35,000  Level Los Angeles Center
01:34PM 33.5836 -114.6489 110° East 497 572 35,000  Level Los Angeles Center
01:35PM 33.5350 -114.4911 110° East 502 578 35,000  Level Los Angeles Center
01:36PM 33.4861 -114.3347 111° Southeast 502 578 35,000  Level Los Angeles Center
01:37PM 33.4367 -114.1789 111° Southeast 501 577 35,000  Level Los Angeles Center
01:38PM 33.3936 -114.0397 110° East 505 581 35,000  Level Albuquerque Center
01:39PM 33.3450 -113.8822 110° East 506 582 35,000  Level Albuquerque Center
01:40PM 33.2961 -113.7275 111° Southeast 503 579 35,000  Level Albuquerque Center
01:41PM 33.2378 -113.5397 110° East 502 578 35,000  Level Albuquerque Center
01:42PM 33.1872 -113.3839 111° Southeast 502 578 35,000  Level Albuquerque Center
01:43PM 33.1372 -113.2294 111° Southeast 500 575 35,000  Level Albuquerque Center
01:44PM 33.0878 -113.0736 111° Southeast 501 577 35,000  Level Albuquerque Center
01:45PM 33.0369 -112.9189 111° Southeast 500 575 35,000  Level Albuquerque Center
01:47PM 32.9856 -112.7619 111° Southeast 503 579 35,000  Level Albuquerque Center
01:48PM 32.9322 -112.6075 112° Southeast 503 579 35,000  Level Albuquerque Center
01:49PM 32.8608 -112.4258 115° Southeast 504 580 35,000 -1,860 Level Albuquerque Center
01:50PM 32.8033 -112.2758 114° Southeast 500 575 31,200 -2,880 Descending Albuquerque Center
01:51PM 32.7522 -112.1442 115° Southeast 490 564 29,100 -1,800 Descending Albuquerque Center
01:52PM 32.6992 -112.0072 115° Southeast 468 539 27,600 -2,520 Descending Albuquerque Center
01:53PM 32.6322 -111.8314 114° Southeast 484 557 23,900 -3,300 Descending Albuquerque Center
01:54PM 32.5831 -111.7100 116° Southeast 430 495 20,800 -3,420 Descending Albuquerque Center
01:55PM 32.5222 -111.5867 120° Southeast 384 442 16,700 -3,780 Descending Albuquerque Center
01:56PM 32.4808 -111.4917 117° Southeast 361 415 13,400 -2,340 Descending Albuquerque Center
01:57PM 32.4519 -111.4006 111° Southeast 329 379 12,100 -1,380 Descending Albuquerque Center
01:58PM 32.4161 -111.2992 113° Southeast 295 339 10,500 -1,680 Descending Albuquerque Center
01:59PM 32.3592 -111.2244 132° Southeast 299 344 8,700 -1,620 Descending Albuquerque Center
02:00PM 32.3011 -111.1586 136° Southeast 284 327 7,300 -1,500 Descending Albuquerque Center
02:01PM 32.2456 -111.0928 135° Southeast 278 320 5,800 -1,380 Descending Albuquerque Center
02:02PM 32.1983 -111.0375 135° Southeast 251 289 4,600 -900 Descending Albuquerque Center
02:03PM 32.1533 -110.9731 130° Southeast 251 289 3,900 -960 Descending Albuquerque Center
02:04PM 32.1289 -110.9556 149° Southeast 159 183 2,800 -1,440 Descending Albuquerque Center
02:06PM 32.1161 -110.9410 140° Southeast  Level Estimated